createdAt,value
2018-01-02T00:00:31.319Z,0
2018-01-02T00:01:39.932Z,0
2018-01-02T00:02:48.777Z,0
2018-01-02T00:03:57.377Z,0
2018-01-02T00:05:05.987Z,0
2018-01-02T00:06:14.589Z,0
2018-01-02T00:07:23.185Z,0
2018-01-02T00:08:31.799Z,0
2018-01-02T00:09:40.398Z,0
2018-01-02T00:10:49.248Z,0
2018-01-02T00:11:57.858Z,0
2018-01-02T00:13:06.461Z,0
2018-01-02T00:14:15.049Z,0
2018-01-02T00:15:23.658Z,0
2018-01-02T00:16:32.265Z,0
2018-01-02T00:17:40.857Z,0
2018-01-02T00:18:49.461Z,0
2018-01-02T00:19:58.074Z,0
2018-01-02T00:21:06.666Z,0
2018-01-02T00:22:15.264Z,0
2018-01-02T00:23:23.866Z,0
2018-01-02T00:24:32.471Z,0
2018-01-02T00:25:41.078Z,0
2018-01-02T00:26:49.670Z,0
2018-01-02T00:27:58.273Z,0
2018-01-02T00:29:06.886Z,0
2018-01-02T00:30:15.472Z,0
2018-01-02T00:31:24.081Z,0
2018-01-02T00:32:32.692Z,0
2018-01-02T00:33:41.285Z,0
2018-01-02T00:34:50.142Z,0
2018-01-02T00:35:58.757Z,0
2018-01-02T00:37:07.356Z,0
2018-01-02T00:38:15.961Z,0
2018-01-02T00:39:24.550Z,0
2018-01-02T00:40:33.155Z,0
2018-01-02T00:41:41.765Z,0
2018-01-02T00:42:50.359Z,0
2018-01-02T00:43:58.953Z,0
2018-01-02T00:45:07.573Z,0
2018-01-02T00:46:16.427Z,0
2018-01-02T00:47:25.019Z,0
2018-01-02T00:48:33.629Z,0
2018-01-02T00:49:42.234Z,0
2018-01-02T00:50:50.821Z,0
2018-01-02T00:51:59.427Z,0
2018-01-02T00:53:08.025Z,0
2018-01-02T00:54:16.633Z,0
2018-01-02T00:55:25.231Z,0
2018-01-02T00:56:33.821Z,0
2018-01-02T00:57:42.695Z,0
2018-01-02T00:58:51.557Z,0
2018-01-02T01:00:00.149Z,0
2018-01-02T01:01:08.756Z,0
2018-01-02T01:02:17.364Z,0
2018-01-02T01:03:25.955Z,0
2018-01-02T01:04:34.560Z,0
2018-01-02T01:05:43.436Z,0
2018-01-02T01:06:52.023Z,0
2018-01-02T01:08:00.622Z,0
2018-01-02T01:09:09.230Z,0
2018-01-02T01:10:17.825Z,0
2018-01-02T01:11:26.419Z,0
2018-01-02T01:12:35.038Z,0
2018-01-02T01:13:43.639Z,0
2018-01-02T01:14:52.228Z,0
2018-01-02T01:16:00.838Z,0
2018-01-02T01:17:09.442Z,0
2018-01-02T01:18:18.034Z,0
2018-01-02T01:19:26.639Z,0
2018-01-02T01:20:35.244Z,0
2018-01-02T01:21:43.846Z,0
2018-01-02T01:22:52.440Z,0
2018-01-02T01:24:01.034Z,0
2018-01-02T01:25:09.645Z,0
2018-01-02T01:26:18.250Z,0
2018-01-02T01:27:26.835Z,0
2018-01-02T01:28:35.442Z,0
2018-01-02T01:29:44.051Z,0
2018-01-02T01:30:52.643Z,0
2018-01-02T01:32:01.248Z,0
2018-01-02T01:33:09.856Z,0
2018-01-02T01:34:18.445Z,0
2018-01-02T01:35:27.042Z,0
2018-01-02T01:36:35.647Z,0
2018-01-02T01:37:44.253Z,0
2018-01-02T01:38:52.860Z,0
2018-01-02T01:40:01.450Z,0
2018-01-02T01:41:10.053Z,0
2018-01-02T01:42:18.666Z,0
2018-01-02T01:43:27.254Z,0
2018-01-02T01:44:35.853Z,0
2018-01-02T01:45:44.461Z,0
2018-01-02T01:46:53.059Z,0
2018-01-02T01:48:01.662Z,0
2018-01-02T01:49:10.544Z,0
2018-01-02T01:50:19.143Z,0
2018-01-02T01:51:28.008Z,0
2018-01-02T01:52:36.601Z,0
2018-01-02T01:53:45.200Z,0
2018-01-02T01:54:53.812Z,0
2018-01-02T01:56:02.402Z,0
2018-01-02T01:57:10.992Z,0
2018-01-02T01:58:19.603Z,0
2018-01-02T01:59:28.206Z,0
2018-01-02T02:00:36.799Z,0
2018-01-02T02:01:45.414Z,0
2018-01-02T02:02:54.016Z,0
2018-01-02T02:04:02.608Z,0
2018-01-02T02:05:11.215Z,0
2018-01-02T02:06:19.819Z,0
2018-01-02T02:07:28.410Z,0
2018-01-02T02:08:37.272Z,0
2018-01-02T02:09:45.885Z,0
2018-01-02T02:10:54.474Z,0
2018-01-02T02:12:03.071Z,0
2018-01-02T02:13:11.684Z,0
2018-01-02T02:14:20.278Z,0
2018-01-02T02:15:28.870Z,0
2018-01-02T02:16:37.484Z,0
2018-01-02T02:17:46.347Z,0
2018-01-02T02:18:54.933Z,0
2018-01-02T02:20:03.539Z,0
2018-01-02T02:21:12.143Z,0
2018-01-02T02:22:20.751Z,0
2018-01-02T02:23:29.347Z,0
2018-01-02T02:24:37.938Z,0
2018-01-02T02:25:46.551Z,0
2018-01-02T02:26:55.152Z,0
2018-01-02T02:28:03.742Z,0
2018-01-02T02:29:12.351Z,0
2018-01-02T02:30:20.955Z,0
2018-01-02T02:31:29.544Z,0
2018-01-02T02:32:38.153Z,0
2018-01-02T02:33:46.766Z,0
2018-01-02T02:34:55.363Z,0
2018-01-02T02:36:03.965Z,0
2018-01-02T02:37:12.556Z,0
2018-01-02T02:38:21.165Z,0
2018-01-02T02:39:29.774Z,0
2018-01-02T02:40:38.354Z,0
2018-01-02T02:41:46.965Z,0
2018-01-02T02:42:55.569Z,0
2018-01-02T02:44:04.161Z,0
2018-01-02T02:45:13.022Z,0
2018-01-02T02:46:21.636Z,0
2018-01-02T02:47:30.227Z,0
2018-01-02T02:48:38.825Z,0
2018-01-02T02:49:47.427Z,0
2018-01-02T02:50:56.034Z,0
2018-01-02T02:52:04.645Z,0
2018-01-02T02:53:13.490Z,0
2018-01-02T02:54:22.093Z,0
2018-01-02T02:55:30.708Z,0
2018-01-02T02:56:39.297Z,0
2018-01-02T02:57:47.897Z,0
2018-01-02T02:58:56.511Z,0
2018-01-02T03:00:05.104Z,0
2018-01-02T03:01:13.698Z,0
2018-01-02T03:02:22.318Z,0
2018-01-02T03:03:30.913Z,0
2018-01-02T03:04:39.522Z,0
2018-01-02T03:05:48.111Z,0
2018-01-02T03:06:56.707Z,0
2018-01-02T03:08:05.316Z,0
2018-01-02T03:09:13.908Z,0
2018-01-02T03:10:22.501Z,0
2018-01-02T03:11:31.113Z,0
2018-01-02T03:12:39.714Z,0
2018-01-02T03:13:48.303Z,0
2018-01-02T03:14:56.915Z,0
2018-01-02T03:16:05.516Z,0
2018-01-02T03:17:14.112Z,0
2018-01-02T03:18:23.233Z,0
2018-01-02T03:19:31.824Z,0
2018-01-02T03:20:40.438Z,0
2018-01-02T03:21:49.039Z,0
2018-01-02T03:22:57.627Z,0
2018-01-02T03:24:06.240Z,0
2018-01-02T03:25:14.840Z,0
2018-01-02T03:26:23.431Z,0
2018-01-02T03:27:32.038Z,0
2018-01-02T03:28:40.649Z,0
2018-01-02T03:29:49.235Z,0
2018-01-02T03:30:57.839Z,0
2018-01-02T03:32:06.449Z,0
2018-01-02T03:33:15.302Z,0
2018-01-02T03:34:23.904Z,0
2018-01-02T03:35:32.745Z,0
2018-01-02T03:36:41.354Z,0
2018-01-02T03:37:49.958Z,0
2018-01-02T03:38:58.548Z,0
2018-01-02T03:40:07.153Z,0
2018-01-02T03:41:16.030Z,0
2018-01-02T03:42:24.615Z,0
2018-01-02T03:43:33.213Z,0
2018-01-02T03:44:41.822Z,0
2018-01-02T03:45:50.420Z,0
2018-01-02T03:46:59.014Z,0
2018-01-02T03:48:07.614Z,0
2018-01-02T03:49:16.216Z,0
2018-01-02T03:50:24.829Z,0
2018-01-02T03:51:33.419Z,0
2018-01-02T03:52:42.016Z,0
2018-01-02T03:53:50.627Z,0
2018-01-02T03:54:59.224Z,0
2018-01-02T03:56:08.078Z,0
2018-01-02T03:57:16.694Z,0
2018-01-02T03:58:25.289Z,0
2018-01-02T03:59:33.881Z,0
2018-01-02T04:00:42.490Z,0
2018-01-02T04:01:51.092Z,0
2018-01-02T04:02:59.683Z,0
2018-01-02T04:04:08.292Z,0
2018-01-02T04:05:16.900Z,0
2018-01-02T04:06:25.489Z,0
2018-01-02T04:07:34.092Z,0
2018-01-02T04:08:42.700Z,0
2018-01-02T04:09:51.289Z,0
2018-01-02T04:10:59.888Z,0
2018-01-02T04:12:08.498Z,0
2018-01-02T04:13:17.092Z,0
2018-01-02T04:14:25.689Z,0
2018-01-02T04:15:34.297Z,0
2018-01-02T04:16:42.892Z,0
2018-01-02T04:17:51.502Z,0
2018-01-02T04:19:00.347Z,0
2018-01-02T04:20:08.944Z,0
2018-01-02T04:21:17.553Z,0
2018-01-02T04:22:26.146Z,0
2018-01-02T04:23:34.738Z,0
2018-01-02T04:24:43.348Z,0
2018-01-02T04:25:51.948Z,0
2018-01-02T04:27:00.537Z,0
2018-01-02T04:28:09.148Z,0
2018-01-02T04:29:17.749Z,0
2018-01-02T04:30:26.344Z,0
2018-01-02T04:31:34.949Z,0
2018-01-02T04:32:43.541Z,0
2018-01-02T04:33:52.153Z,0
2018-01-02T04:35:00.751Z,0
2018-01-02T04:36:09.344Z,0
2018-01-02T04:37:17.954Z,0
2018-01-02T04:38:26.557Z,0
2018-01-02T04:39:35.142Z,0
2018-01-02T04:40:44.015Z,0
2018-01-02T04:41:52.625Z,0
2018-01-02T04:43:01.212Z,0
2018-01-02T04:44:09.812Z,0
2018-01-02T04:45:18.422Z,0
2018-01-02T04:46:27.020Z,0
2018-01-02T04:47:35.621Z,0
2018-01-02T04:48:44.214Z,0
2018-01-02T04:49:52.821Z,0
2018-01-02T04:51:01.697Z,0
2018-01-02T04:52:10.289Z,0
2018-01-02T04:53:18.889Z,0
2018-01-02T04:54:27.501Z,0
2018-01-02T04:55:36.091Z,0
2018-01-02T04:56:44.692Z,0
2018-01-02T04:57:53.307Z,0
2018-01-02T04:59:01.903Z,0
2018-01-02T05:00:10.501Z,0
2018-01-02T05:01:19.361Z,0
2018-01-02T05:02:28.219Z,0
2018-01-02T05:03:36.836Z,0
2018-01-02T05:04:45.418Z,0
2018-01-02T05:05:54.026Z,0
2018-01-02T05:07:02.635Z,0
2018-01-02T05:08:11.230Z,0
2018-01-02T05:09:19.829Z,0
2018-01-02T05:10:28.699Z,0
2018-01-02T05:11:37.297Z,0
2018-01-02T05:12:45.892Z,0
2018-01-02T05:13:54.503Z,0
2018-01-02T05:15:03.106Z,0
2018-01-02T05:16:11.711Z,0
2018-01-02T05:17:20.307Z,0
2018-01-02T05:18:28.901Z,0
2018-01-02T05:19:37.513Z,0
2018-01-02T05:20:46.111Z,0
2018-01-02T05:21:54.705Z,0
2018-01-02T05:23:03.315Z,0
2018-01-02T05:24:11.916Z,0
2018-01-02T05:25:20.510Z,0
2018-01-02T05:26:29.115Z,0
2018-01-02T05:27:37.722Z,0
2018-01-02T05:28:46.316Z,0
2018-01-02T05:29:54.919Z,0
2018-01-02T05:31:03.509Z,0
2018-01-02T05:32:12.122Z,0
2018-01-02T05:33:20.727Z,0
2018-01-02T05:34:29.318Z,0
2018-01-02T05:35:37.926Z,0
2018-01-02T05:36:46.532Z,0
2018-01-02T05:37:55.123Z,0
2018-01-02T05:39:03.730Z,0
2018-01-02T05:40:12.339Z,0
2018-01-02T05:41:20.929Z,0
2018-01-02T05:42:29.529Z,0
2018-01-02T05:43:38.401Z,0
2018-01-02T05:44:47.000Z,0
2018-01-02T05:45:55.610Z,0
2018-01-02T05:47:04.200Z,0
2018-01-02T05:48:12.804Z,0
2018-01-02T05:49:21.416Z,0
2018-01-02T05:50:30.015Z,0
2018-01-02T05:51:38.611Z,0
2018-01-02T05:52:47.223Z,0
2018-01-02T05:53:55.815Z,0
2018-01-02T05:55:04.927Z,0
2018-01-02T05:56:13.540Z,0
2018-01-02T05:57:22.142Z,0
2018-01-02T05:58:30.733Z,0
2018-01-02T05:59:39.342Z,0
2018-01-02T06:00:47.949Z,0
2018-01-02T06:01:56.538Z,0
2018-01-02T06:03:05.149Z,0
2018-01-02T06:04:13.755Z,0
2018-01-02T06:05:22.354Z,0
2018-01-02T06:06:30.957Z,0
2018-01-02T06:07:39.572Z,0
2018-01-02T06:08:48.163Z,0
2018-01-02T06:09:56.761Z,0
2018-01-02T06:11:05.375Z,0
2018-01-02T06:12:13.971Z,0
2018-01-02T06:13:22.566Z,0
2018-01-02T06:14:31.167Z,0
2018-01-02T06:15:39.772Z,0
2018-01-02T06:16:48.388Z,0
2018-01-02T06:17:56.974Z,0
2018-01-02T06:19:05.575Z,0
2018-01-02T06:20:14.184Z,0
2018-01-02T06:21:22.780Z,0
2018-01-02T06:22:31.378Z,0
2018-01-02T06:23:40.247Z,0
2018-01-02T06:24:48.846Z,0
2018-01-02T06:25:57.436Z,0
2018-01-02T06:27:06.050Z,0
2018-01-02T06:28:14.914Z,0
2018-01-02T06:29:23.519Z,0
2018-01-02T06:30:32.113Z,0
2018-01-02T06:31:40.706Z,0
2018-01-02T06:32:49.319Z,0
2018-01-02T06:33:57.921Z,0
2018-01-02T06:35:06.515Z,0
2018-01-02T06:36:15.125Z,0
2018-01-02T06:37:23.729Z,0
2018-01-02T06:38:32.833Z,0
2018-01-02T06:39:41.440Z,0
2018-01-02T06:40:50.050Z,0
2018-01-02T06:41:58.640Z,0
2018-01-02T06:43:07.244Z,0
2018-01-02T06:44:15.839Z,0
2018-01-02T06:45:24.455Z,0
2018-01-02T06:46:33.062Z,0
2018-01-02T06:47:41.648Z,0
2018-01-02T06:48:50.254Z,0
2018-01-02T06:49:58.862Z,0
2018-01-02T06:51:07.454Z,0
2018-01-02T06:52:16.060Z,0
2018-01-02T06:53:24.671Z,0
2018-01-02T06:54:33.260Z,0
2018-01-02T06:55:42.122Z,0
2018-01-02T06:56:50.735Z,0
2018-01-02T06:57:59.331Z,0
2018-01-02T06:59:07.940Z,0
2018-01-02T07:00:16.532Z,0
2018-01-02T07:01:25.135Z,0
2018-01-02T07:02:33.751Z,0
2018-01-02T07:03:42.599Z,4
2018-01-02T07:04:51.194Z,0
2018-01-02T07:05:59.808Z,4
2018-01-02T07:07:08.402Z,4
2018-01-02T07:08:17.001Z,4
2018-01-02T07:09:25.611Z,4
2018-01-02T07:10:34.214Z,4
2018-01-02T07:11:43.057Z,0
2018-01-02T07:12:51.666Z,4
2018-01-02T07:14:00.264Z,0
2018-01-02T07:15:08.877Z,4
2018-01-02T07:16:17.468Z,4
2018-01-02T07:17:26.062Z,4
2018-01-02T07:18:34.672Z,4
2018-01-02T07:19:43.274Z,4
2018-01-02T07:20:51.864Z,8
2018-01-02T07:22:00.482Z,8
2018-01-02T07:23:09.077Z,8
2018-01-02T07:24:17.668Z,12
2018-01-02T07:25:26.275Z,12
2018-01-02T07:26:34.887Z,16
2018-01-02T07:27:43.486Z,16
2018-01-02T07:28:52.086Z,20
2018-01-02T07:30:00.946Z,20
2018-01-02T07:31:09.813Z,24
2018-01-02T07:32:18.418Z,28
2018-01-02T07:33:27.009Z,40
2018-01-02T07:34:35.620Z,52
2018-01-02T07:35:44.483Z,60
2018-01-02T07:36:53.078Z,68
2018-01-02T07:38:01.680Z,72
2018-01-02T07:39:10.343Z,80
2018-01-02T07:40:18.886Z,92
2018-01-02T07:41:27.486Z,96
2018-01-02T07:42:36.088Z,100
2018-01-02T07:43:44.697Z,96
2018-01-02T07:44:53.306Z,100
2018-01-02T07:46:01.902Z,104
2018-01-02T07:47:10.503Z,80
2018-01-02T07:48:19.118Z,64
2018-01-02T07:49:27.705Z,76
2018-01-02T07:50:36.306Z,88
2018-01-02T07:51:44.914Z,72
2018-01-02T07:52:53.516Z,64
2018-01-02T07:54:02.110Z,72
2018-01-02T07:55:10.725Z,88
2018-01-02T07:56:19.323Z,116
2018-01-02T07:57:27.916Z,92
2018-01-02T07:58:36.528Z,92
2018-01-02T07:59:45.126Z,60
2018-01-02T08:00:53.718Z,52
2018-01-02T08:02:02.326Z,68
2018-01-02T08:03:10.935Z,116
2018-01-02T08:04:19.526Z,164
2018-01-02T08:05:28.130Z,264
2018-01-02T08:06:36.740Z,316
2018-01-02T08:07:45.333Z,336
2018-01-02T08:08:53.930Z,336
2018-01-02T08:10:02.805Z,384
2018-01-02T08:11:11.399Z,408
2018-01-02T08:12:20.010Z,420
2018-01-02T08:13:28.605Z,428
2018-01-02T08:14:37.214Z,440
2018-01-02T08:15:45.822Z,440
2018-01-02T08:16:54.414Z,432
2018-01-02T08:18:03.021Z,448
2018-01-02T08:19:11.625Z,464
2018-01-02T08:20:20.221Z,492
2018-01-02T08:21:28.822Z,504
2018-01-02T08:22:37.692Z,476
2018-01-02T08:23:46.295Z,460
2018-01-02T08:24:54.885Z,536
2018-01-02T08:26:03.494Z,652
2018-01-02T08:27:12.092Z,716
2018-01-02T08:28:20.702Z,568
2018-01-02T08:29:29.299Z,436
2018-01-02T08:30:37.893Z,336
2018-01-02T08:31:46.505Z,324
2018-01-02T08:32:55.106Z,300
2018-01-02T08:34:03.699Z,292
2018-01-02T08:35:12.308Z,244
2018-01-02T08:36:20.913Z,260
2018-01-02T08:37:29.503Z,320
2018-01-02T08:38:38.112Z,392
2018-01-02T08:39:46.722Z,484
2018-01-02T08:40:55.320Z,636
2018-01-02T08:42:03.922Z,620
2018-01-02T08:43:12.519Z,528
2018-01-02T08:44:21.133Z,520
2018-01-02T08:45:29.741Z,476
2018-01-02T08:46:38.324Z,516
2018-01-02T08:47:46.934Z,604
2018-01-02T08:48:55.540Z,496
2018-01-02T08:50:04.132Z,516
2018-01-02T08:51:12.734Z,548
2018-01-02T08:52:21.349Z,412
2018-01-02T08:53:29.936Z,412
2018-01-02T08:54:38.538Z,464
2018-01-02T08:55:47.143Z,648
2018-01-02T08:56:55.747Z,752
2018-01-02T08:58:04.355Z,676
2018-01-02T08:59:12.951Z,576
2018-01-02T09:00:21.558Z,664
2018-01-02T09:01:30.174Z,624
2018-01-02T09:02:39.023Z,668
2018-01-02T09:03:47.628Z,824
2018-01-02T09:04:56.239Z,956
2018-01-02T09:06:04.838Z,1064
2018-01-02T09:07:13.430Z,1220
2018-01-02T09:08:22.302Z,1244
2018-01-02T09:09:30.903Z,1280
2018-01-02T09:10:39.511Z,1248
2018-01-02T09:11:48.106Z,1220
2018-01-02T09:12:56.707Z,1212
2018-01-02T09:14:05.320Z,1220
2018-01-02T09:15:13.914Z,1256
2018-01-02T09:16:22.509Z,1328
2018-01-02T09:17:31.120Z,1340
2018-01-02T09:18:39.724Z,1352
2018-01-02T09:19:48.318Z,1376
2018-01-02T09:20:56.935Z,1248
2018-01-02T09:22:05.538Z,1084
2018-01-02T09:23:14.130Z,1148
2018-01-02T09:24:22.741Z,1396
2018-01-02T09:25:31.338Z,1432
2018-01-02T09:26:39.948Z,1456
2018-01-02T09:27:48.561Z,1584
2018-01-02T09:28:57.156Z,1632
2018-01-02T09:30:06.032Z,1608
2018-01-02T09:31:14.638Z,1568
2018-01-02T09:32:23.233Z,1580
2018-01-02T09:33:31.918Z,1584
2018-01-02T09:34:40.530Z,1524
2018-01-02T09:35:49.376Z,1484
2018-01-02T09:36:57.981Z,1524
2018-01-02T09:38:06.598Z,1704
2018-01-02T09:39:15.191Z,2032
2018-01-02T09:40:23.790Z,2252
2018-01-02T09:41:32.384Z,2044
2018-01-02T09:42:40.995Z,2036
2018-01-02T09:43:49.607Z,1860
2018-01-02T09:44:58.198Z,1900
2018-01-02T09:46:06.801Z,2532
2018-01-02T09:47:15.416Z,2520
2018-01-02T09:48:24.010Z,2624
2018-01-02T09:49:32.615Z,2600
2018-01-02T09:50:41.279Z,2520
2018-01-02T09:51:49.822Z,2252
2018-01-02T09:52:58.420Z,2308
2018-01-02T09:54:07.032Z,2172
2018-01-02T09:55:15.636Z,1812
2018-01-02T09:56:24.230Z,1260
2018-01-02T09:57:32.842Z,1192
2018-01-02T09:58:41.448Z,1164
2018-01-02T09:59:50.039Z,980
2018-01-02T10:00:58.650Z,1012
2018-01-02T10:02:07.256Z,1032
2018-01-02T10:03:16.362Z,968
2018-01-02T10:04:24.967Z,900
2018-01-02T10:05:33.586Z,860
2018-01-02T10:06:42.176Z,840
2018-01-02T10:07:50.778Z,852
2018-01-02T10:08:59.381Z,884
2018-01-02T10:10:07.992Z,956
2018-01-02T10:11:16.600Z,1036
2018-01-02T10:12:25.192Z,1108
2018-01-02T10:13:33.801Z,1220
2018-01-02T10:14:42.416Z,1348
2018-01-02T10:15:51.009Z,1556
2018-01-02T10:16:59.867Z,1748
2018-01-02T10:18:08.481Z,1976
2018-01-02T10:19:17.076Z,2128
2018-01-02T10:20:25.671Z,2080
2018-01-02T10:21:34.285Z,2004
2018-01-02T10:22:42.886Z,1976
2018-01-02T10:23:51.493Z,1896
2018-01-02T10:25:00.087Z,1784
2018-01-02T10:26:08.687Z,1676
2018-01-02T10:27:17.301Z,1600
2018-01-02T10:28:25.896Z,1628
2018-01-02T10:29:34.489Z,1768
2018-01-02T10:30:43.104Z,1940
2018-01-02T10:31:51.964Z,2104
2018-01-02T10:33:00.560Z,2128
2018-01-02T10:34:09.175Z,2084
2018-01-02T10:35:17.782Z,2124
2018-01-02T10:36:26.376Z,2128
2018-01-02T10:37:34.984Z,2084
2018-01-02T10:38:43.855Z,2076
2018-01-02T10:39:52.468Z,2056
2018-01-02T10:41:01.324Z,2032
2018-01-02T10:42:09.915Z,2072
2018-01-02T10:43:18.791Z,2020
2018-01-02T10:44:27.399Z,2012
2018-01-02T10:45:35.988Z,1976
2018-01-02T10:46:44.598Z,1980
2018-01-02T10:47:53.205Z,2052
2018-01-02T10:49:01.799Z,2112
2018-01-02T10:50:10.409Z,2112
2018-01-02T10:51:19.282Z,2112
2018-01-02T10:52:27.892Z,2160
2018-01-02T10:53:36.549Z,2180
2018-01-02T10:54:45.140Z,2180
2018-01-02T10:55:53.753Z,2200
2018-01-02T10:57:02.360Z,2220
2018-01-02T10:58:10.952Z,2252
2018-01-02T10:59:19.556Z,2288
2018-01-02T11:00:28.171Z,2280
2018-01-02T11:01:36.762Z,2264
2018-01-02T11:02:45.363Z,2268
2018-01-02T11:03:53.974Z,2284
2018-01-02T11:05:02.574Z,2292
2018-01-02T11:06:11.170Z,2292
2018-01-02T11:07:19.772Z,2376
2018-01-02T11:08:28.377Z,2316
2018-01-02T11:09:36.994Z,2232
2018-01-02T11:10:45.846Z,2088
2018-01-02T11:11:54.444Z,1992
2018-01-02T11:13:03.060Z,1856
2018-01-02T11:14:11.659Z,1892
2018-01-02T11:15:20.256Z,1992
2018-01-02T11:16:28.872Z,1968
2018-01-02T11:17:37.473Z,1948
2018-01-02T11:18:46.069Z,1956
2018-01-02T11:19:54.682Z,1968
2018-01-02T11:21:03.287Z,1908
2018-01-02T11:22:11.893Z,1844
2018-01-02T11:23:20.487Z,1852
2018-01-02T11:24:29.079Z,1852
2018-01-02T11:25:37.694Z,1724
2018-01-02T11:26:46.298Z,1644
2018-01-02T11:27:54.893Z,1484
2018-01-02T11:29:03.573Z,1472
2018-01-02T11:30:12.180Z,1464
2018-01-02T11:31:20.768Z,1340
2018-01-02T11:32:29.380Z,1476
2018-01-02T11:33:37.990Z,1600
2018-01-02T11:34:46.844Z,1588
2018-01-02T11:35:55.725Z,1800
2018-01-02T11:37:04.319Z,1828
2018-01-02T11:38:12.933Z,1828
2018-01-02T11:39:21.542Z,1744
2018-01-02T11:40:30.131Z,1700
2018-01-02T11:41:38.740Z,1668
2018-01-02T11:42:47.350Z,1676
2018-01-02T11:43:55.951Z,1620
2018-01-02T11:45:04.552Z,1500
2018-01-02T11:46:13.167Z,1380
2018-01-02T11:47:21.758Z,1228
2018-01-02T11:48:30.361Z,1216
2018-01-02T11:49:38.972Z,1296
2018-01-02T11:50:47.574Z,1396
2018-01-02T11:51:56.542Z,1348
2018-01-02T11:53:05.185Z,1340
2018-01-02T11:54:13.807Z,1508
2018-01-02T11:55:22.417Z,1648
2018-01-02T11:56:31.028Z,1764
2018-01-02T11:57:39.634Z,1836
2018-01-02T11:58:48.234Z,1728
2018-01-02T11:59:56.843Z,1508
2018-01-02T12:01:05.717Z,1456
2018-01-02T12:02:14.310Z,1500
2018-01-02T12:03:23.206Z,1488
2018-01-02T12:04:31.818Z,1468
2018-01-02T12:05:40.416Z,1828
2018-01-02T12:06:49.019Z,1740
2018-01-02T12:07:57.613Z,1504
2018-01-02T12:09:06.220Z,1168
2018-01-02T12:10:14.827Z,1032
2018-01-02T12:11:23.424Z,856
2018-01-02T12:12:32.430Z,676
2018-01-02T12:13:41.130Z,712
2018-01-02T12:14:49.783Z,764
2018-01-02T12:15:58.382Z,688
2018-01-02T12:17:06.995Z,616
2018-01-02T12:18:15.607Z,592
2018-01-02T12:19:24.201Z,680
2018-01-02T12:20:32.802Z,736
2018-01-02T12:21:41.407Z,744
2018-01-02T12:22:51.742Z,772
2018-01-02T12:24:00.514Z,756
2018-01-02T12:25:09.631Z,764
2018-01-02T12:26:18.274Z,820
2018-01-02T12:27:27.245Z,936
2018-01-02T12:28:35.840Z,1128
2018-01-02T12:29:44.777Z,1492
2018-01-02T12:30:53.656Z,1796
2018-01-02T12:32:02.249Z,1952
2018-01-02T12:33:10.858Z,1960
2018-01-02T12:34:19.465Z,1844
2018-01-02T12:35:28.071Z,1792
2018-01-02T12:36:36.665Z,1816
2018-01-02T12:37:45.261Z,1648
2018-01-02T12:38:53.877Z,1404
2018-01-02T12:40:02.797Z,1156
2018-01-02T12:41:11.344Z,1032
2018-01-02T12:42:19.957Z,1016
2018-01-02T12:43:28.567Z,1028
2018-01-02T12:44:37.158Z,1012
2018-01-02T12:45:45.767Z,1000
2018-01-02T12:46:54.631Z,888
2018-01-02T12:48:03.231Z,752
2018-01-02T12:49:12.141Z,784
2018-01-02T12:50:20.687Z,784
2018-01-02T12:51:29.304Z,888
2018-01-02T12:52:37.910Z,856
2018-01-02T12:53:46.502Z,860
2018-01-02T12:54:55.115Z,1008
2018-01-02T12:56:03.978Z,1040
2018-01-02T12:57:12.571Z,1172
2018-01-02T12:58:21.176Z,1560
2018-01-02T12:59:29.790Z,1880
2018-01-02T13:00:38.384Z,1772
2018-01-02T13:01:46.983Z,1764
2018-01-02T13:02:55.596Z,1704
2018-01-02T13:04:04.197Z,1700
2018-01-02T13:05:12.807Z,1620
2018-01-02T13:06:21.396Z,1544
2018-01-02T13:07:30.008Z,1728
2018-01-02T13:08:38.878Z,1584
2018-01-02T13:09:47.733Z,1468
2018-01-02T13:10:56.345Z,1492
2018-01-02T13:12:04.959Z,1548
2018-01-02T13:13:13.810Z,1472
2018-01-02T13:14:22.407Z,1552
2018-01-02T13:15:31.019Z,1412
2018-01-02T13:16:39.622Z,1108
2018-01-02T13:17:48.214Z,876
2018-01-02T13:18:56.820Z,860
2018-01-02T13:20:05.416Z,784
2018-01-02T13:21:14.036Z,696
2018-01-02T13:22:22.632Z,728
2018-01-02T13:23:31.231Z,932
2018-01-02T13:24:39.840Z,988
2018-01-02T13:25:48.439Z,1008
2018-01-02T13:26:57.033Z,988
2018-01-02T13:28:05.673Z,1076
2018-01-02T13:29:14.287Z,800
2018-01-02T13:30:22.880Z,704
2018-01-02T13:31:31.518Z,716
2018-01-02T13:32:40.131Z,872
2018-01-02T13:33:48.735Z,1228
2018-01-02T13:34:57.334Z,1188
2018-01-02T13:36:05.933Z,984
2018-01-02T13:37:14.567Z,1200
2018-01-02T13:38:23.174Z,1408
2018-01-02T13:39:31.778Z,1416
2018-01-02T13:40:40.412Z,1248
2018-01-02T13:41:49.038Z,1060
2018-01-02T13:42:57.945Z,924
2018-01-02T13:44:06.560Z,860
2018-01-02T13:45:15.177Z,840
2018-01-02T13:46:23.778Z,880
2018-01-02T13:47:32.388Z,800
2018-01-02T13:48:41.019Z,900
2018-01-02T13:49:49.628Z,988
2018-01-02T13:50:58.224Z,956
2018-01-02T13:52:06.841Z,844
2018-01-02T13:53:15.465Z,748
2018-01-02T13:54:24.069Z,680
2018-01-02T13:55:32.684Z,588
2018-01-02T13:56:41.290Z,560
2018-01-02T13:57:49.887Z,516
2018-01-02T13:58:58.502Z,500
2018-01-02T14:00:07.114Z,496
2018-01-02T14:01:15.712Z,524
2018-01-02T14:02:24.317Z,516
2018-01-02T14:03:32.918Z,520
2018-01-02T14:04:41.540Z,552
2018-01-02T14:05:50.145Z,568
2018-01-02T14:06:58.743Z,600
2018-01-02T14:08:07.616Z,604
2018-01-02T14:09:16.232Z,584
2018-01-02T14:10:24.834Z,596
2018-01-02T14:11:33.444Z,628
2018-01-02T14:12:42.072Z,652
2018-01-02T14:13:50.677Z,620
2018-01-02T14:14:59.323Z,576
2018-01-02T14:16:07.922Z,532
2018-01-02T14:17:16.542Z,500
2018-01-02T14:18:25.157Z,484
2018-01-02T14:19:33.750Z,484
2018-01-02T14:20:42.389Z,472
2018-01-02T14:21:51.007Z,432
2018-01-02T14:22:59.605Z,392
2018-01-02T14:24:08.213Z,356
2018-01-02T14:25:16.843Z,348
2018-01-02T14:26:25.448Z,376
2018-01-02T14:27:34.064Z,380
2018-01-02T14:28:42.679Z,424
2018-01-02T14:29:51.291Z,476
2018-01-02T14:30:59.892Z,532
2018-01-02T14:32:08.504Z,560
2018-01-02T14:33:17.108Z,580
2018-01-02T14:34:25.721Z,568
2018-01-02T14:35:34.621Z,544
2018-01-02T14:36:43.224Z,592
2018-01-02T14:37:52.093Z,652
2018-01-02T14:39:00.696Z,680
2018-01-02T14:40:09.289Z,740
2018-01-02T14:41:17.906Z,712
2018-01-02T14:42:26.513Z,728
2018-01-02T14:43:35.108Z,724
2018-01-02T14:44:43.975Z,604
2018-01-02T14:45:52.584Z,540
2018-01-02T14:47:01.182Z,564
2018-01-02T14:48:09.781Z,664
2018-01-02T14:49:18.374Z,736
2018-01-02T14:50:26.988Z,656
2018-01-02T14:51:35.593Z,580
2018-01-02T14:52:44.183Z,536
2018-01-02T14:53:52.793Z,496
2018-01-02T14:55:01.442Z,444
2018-01-02T14:56:09.995Z,388
2018-01-02T14:57:18.599Z,356
2018-01-02T14:58:27.215Z,336
2018-01-02T14:59:35.806Z,320
2018-01-02T15:00:44.407Z,312
2018-01-02T15:01:53.013Z,296
2018-01-02T15:03:01.618Z,276
2018-01-02T15:04:10.229Z,248
2018-01-02T15:05:18.820Z,232
2018-01-02T15:06:27.426Z,224
2018-01-02T15:07:36.038Z,212
2018-01-02T15:08:44.628Z,200
2018-01-02T15:09:53.228Z,188
2018-01-02T15:11:01.837Z,172
2018-01-02T15:12:10.437Z,160
2018-01-02T15:13:19.030Z,152
2018-01-02T15:14:27.647Z,144
2018-01-02T15:15:36.248Z,132
2018-01-02T15:16:44.862Z,124
2018-01-02T15:17:53.712Z,124
2018-01-02T15:19:02.312Z,128
2018-01-02T15:20:10.925Z,140
2018-01-02T15:21:19.521Z,148
2018-01-02T15:22:28.117Z,140
2018-01-02T15:23:36.734Z,136
2018-01-02T15:24:45.333Z,124
2018-01-02T15:25:53.927Z,120
2018-01-02T15:27:02.796Z,104
2018-01-02T15:28:11.403Z,96
2018-01-02T15:29:19.994Z,88
2018-01-02T15:30:28.607Z,80
2018-01-02T15:31:37.202Z,72
2018-01-02T15:32:45.814Z,68
2018-01-02T15:33:54.413Z,60
2018-01-02T15:35:03.003Z,48
2018-01-02T15:36:11.619Z,40
2018-01-02T15:37:20.226Z,32
2018-01-02T15:38:28.817Z,32
2018-01-02T15:39:37.427Z,32
2018-01-02T15:40:46.033Z,28
2018-01-02T15:41:54.627Z,28
2018-01-02T15:43:03.234Z,20
2018-01-02T15:44:11.847Z,16
2018-01-02T15:45:20.436Z,12
2018-01-02T15:46:29.036Z,12
2018-01-02T15:47:37.645Z,12
2018-01-02T15:48:46.242Z,8
2018-01-02T15:49:54.840Z,8
2018-01-02T15:51:03.454Z,4
2018-01-02T15:52:12.317Z,4
2018-01-02T15:53:20.909Z,4
2018-01-02T15:54:29.520Z,4
2018-01-02T15:55:38.122Z,4
2018-01-02T15:56:46.712Z,4
2018-01-02T15:57:55.322Z,4
2018-01-02T15:59:03.935Z,0
2018-01-02T16:00:12.532Z,0
2018-01-02T16:01:21.134Z,0
2018-01-02T16:02:29.728Z,0
2018-01-02T16:03:38.349Z,0
2018-01-02T16:04:46.954Z,0
2018-01-02T16:05:55.546Z,0
2018-01-02T16:07:04.155Z,0
2018-01-02T16:08:12.760Z,0
2018-01-02T16:09:21.352Z,0
2018-01-02T16:10:29.952Z,0
2018-01-02T16:11:38.569Z,0